sensor_id;sensor_type;location;lat;lon;timestamp;pressure;altitude;pressure_sealevel;temperature;humidity
77299;BME280;66361;52.034;20.656;2024-03-06T00:03:03;100222.75;;;4.41;95.56
77299;BME280;66361;52.034;20.656;2024-03-06T00:06:46;100231.44;;;4.41;95.52
77299;BME280;66361;52.034;20.656;2024-03-06T00:10:30;100233.19;;;4.41;95.37
77299;BME280;66361;52.034;20.656;2024-03-06T00:14:14;100232.34;;;4.39;95.26
77299;BME280;66361;52.034;20.656;2024-03-06T00:17:58;100239.28;;;4.40;95.18
77299;BME280;66361;52.034;20.656;2024-03-06T00:21:44;100244.47;;;4.43;95.39
77299;BME280;66361;52.034;20.656;2024-03-06T00:25:28;100242.69;;;4.45;95.13
77299;BME280;66361;52.034;20.656;2024-03-06T00:29:12;100242.66;;;4.46;95.55
77299;BME280;66361;52.034;20.656;2024-03-06T00:32:57;100247.88;;;4.46;95.53
77299;BME280;66361;52.034;20.656;2024-03-06T00:36:44;100246.13;;;4.50;95.33
77299;BME280;66361;52.034;20.656;2024-03-06T00:40:27;100246.06;;;4.51;95.53
77299;BME280;66361;52.034;20.656;2024-03-06T00:44:13;100249.59;;;4.50;95.96
77299;BME280;66361;52.034;20.656;2024-03-06T00:47:57;100248.72;;;4.50;95.48
77299;BME280;66361;52.034;20.656;2024-03-06T00:51:41;100252.22;;;4.49;95.35
77299;BME280;66361;52.034;20.656;2024-03-06T00:55:32;100254.84;;;4.47;95.31
77299;BME280;66361;52.034;20.656;2024-03-06T00:59:15;100252.22;;;4.47;95.28
77299;BME280;66361;52.034;20.656;2024-03-06T01:02:59;100242.66;;;4.48;95.54
77299;BME280;66361;52.034;20.656;2024-03-06T01:06:43;100246.94;;;4.52;95.42
77299;BME280;66361;52.034;20.656;2024-03-06T01:10:28;100241.78;;;4.49;95.64
77299;BME280;66361;52.034;20.656;2024-03-06T01:14:13;100247.00;;;4.49;95.54
77299;BME280;66361;52.034;20.656;2024-03-06T01:17:59;100247.88;;;4.48;95.51
77299;BME280;66361;52.034;20.656;2024-03-06T01:21:43;100254.88;;;4.46;95.57
77299;BME280;66361;52.034;20.656;2024-03-06T01:25:26;100249.59;;;4.49;95.34
77299;BME280;66361;52.034;20.656;2024-03-06T01:29:12;100254.84;;;4.47;95.55
77299;BME280;66361;52.034;20.656;2024-03-06T01:32:56;100250.47;;;4.49;95.52
77299;BME280;66361;52.034;20.656;2024-03-06T01:36:41;100254.81;;;4.50;95.70
77299;BME280;66361;52.034;20.656;2024-03-06T01:40:24;100255.69;;;4.49;95.44
77299;BME280;66361;52.034;20.656;2024-03-06T01:44:08;100250.47;;;4.49;95.53
77299;BME280;66361;52.034;20.656;2024-03-06T01:47:53;100256.56;;;4.50;95.53
77299;BME280;66361;52.034;20.656;2024-03-06T01:51:37;100249.59;;;4.49;95.77
77299;BME280;66361;52.034;20.656;2024-03-06T01:55:21;100264.34;;;4.51;95.97
77299;BME280;66361;52.034;20.656;2024-03-06T01:59:05;100261.78;;;4.50;95.91
77299;BME280;66361;52.034;20.656;2024-03-06T02:02:49;100263.53;;;4.49;95.48
77299;BME280;66361;52.034;20.656;2024-03-06T02:06:35;100252.22;;;4.49;95.80
77299;BME280;66361;52.034;20.656;2024-03-06T02:10:20;100262.66;;;4.50;95.72
77299;BME280;66361;52.034;20.656;2024-03-06T02:14:04;100265.22;;;4.52;96.01
77299;BME280;66361;52.034;20.656;2024-03-06T02:17:49;100267.88;;;4.50;95.73
77299;BME280;66361;52.034;20.656;2024-03-06T02:21:35;100273.91;;;4.52;95.63
77299;BME280;66361;52.034;20.656;2024-03-06T02:25:19;100267.81;;;4.52;95.94
77299;BME280;66361;52.034;20.656;2024-03-06T02:29:03;100265.19;;;4.53;95.76
77299;BME280;66361;52.034;20.656;2024-03-06T02:32:48;100271.28;;;4.56;96.02
77299;BME280;66361;52.034;20.656;2024-03-06T02:36:31;100271.25;;;4.57;95.88
77299;BME280;66361;52.034;20.656;2024-03-06T02:40:17;100266.91;;;4.58;95.92
77299;BME280;66361;52.034;20.656;2024-03-06T02:44:01;100266.03;;;4.57;96.32
77299;BME280;66361;52.034;20.656;2024-03-06T02:47:45;100272.16;;;4.55;95.76
77299;BME280;66361;52.034;20.656;2024-03-06T02:51:32;100271.25;;;4.57;95.90
77299;BME280;66361;52.034;20.656;2024-03-06T02:55:17;100273.88;;;4.57;95.84
77299;BME280;66361;52.034;20.656;2024-03-06T02:59:01;100267.72;;;4.60;95.93
77299;BME280;66361;52.034;20.656;2024-03-06T03:02:47;100271.19;;;4.60;96.11
77299;BME280;66361;52.034;20.656;2024-03-06T03:06:31;100276.38;;;4.63;96.10
77299;BME280;66361;52.034;20.656;2024-03-06T03:10:16;100269.41;;;4.65;95.94
77299;BME280;66361;52.034;20.656;2024-03-06T03:14:00;100272.00;;;4.65;95.98
77299;BME280;66361;52.034;20.656;2024-03-06T03:17:44;100268.53;;;4.65;96.09
77299;BME280;66361;52.034;20.656;2024-03-06T03:21:28;100282.41;;;4.67;96.03
77299;BME280;66361;52.034;20.656;2024-03-06T03:25:13;100275.44;;;4.67;96.01
77299;BME280;66361;52.034;20.656;2024-03-06T03:28:58;100280.72;;;4.64;95.77
77299;BME280;66361;52.034;20.656;2024-03-06T03:32:41;100274.56;;;4.67;96.22
77299;BME280;66361;52.034;20.656;2024-03-06T03:36:26;100279.75;;;4.71;96.06
77299;BME280;66361;52.034;20.656;2024-03-06T03:40:10;100283.25;;;4.70;95.85
77299;BME280;66361;52.034;20.656;2024-03-06T03:43:54;100279.69;;;4.74;95.98
77299;BME280;66361;52.034;20.656;2024-03-06T03:47:40;100274.53;;;4.71;95.88
77299;BME280;66361;52.034;20.656;2024-03-06T03:51:25;100279.69;;;4.74;95.95
77299;BME280;66361;52.034;20.656;2024-03-06T03:55:09;100279.66;;;4.77;95.96
77299;BME280;66361;52.034;20.656;2024-03-06T03:58:53;100281.38;;;4.78;95.88
77299;BME280;66361;52.034;20.656;2024-03-06T04:02:40;100284.81;;;4.80;96.16
77299;BME280;66361;52.034;20.656;2024-03-06T04:06:25;100278.69;;;4.83;96.05
77299;BME280;66361;52.034;20.656;2024-03-06T04:10:10;100276.94;;;4.83;95.84
77299;BME280;66361;52.034;20.656;2024-03-06T04:13:54;100279.56;;;4.83;96.30
77299;BME280;66361;52.034;20.656;2024-03-06T04:17:39;100284.78;;;4.83;96.18
77299;BME280;66361;52.034;20.656;2024-03-06T04:21:24;100285.63;;;4.85;96.26
77299;BME280;66361;52.034;20.656;2024-03-06T04:25:08;100288.16;;;4.88;96.17
77299;BME280;66361;52.034;20.656;2024-03-06T04:28:52;100289.03;;;4.90;95.97
77299;BME280;66361;52.034;20.656;2024-03-06T04:32:35;100289.00;;;4.92;96.18
77299;BME280;66361;52.034;20.656;2024-03-06T04:36:21;100290.72;;;4.93;96.05
77299;BME280;66361;52.034;20.656;2024-03-06T04:40:05;100288.06;;;4.95;96.01
77299;BME280;66361;52.034;20.656;2024-03-06T04:43:51;100287.19;;;4.96;96.05
77299;BME280;66361;52.034;20.656;2024-03-06T04:47:35;100288.03;;;4.98;96.39
77299;BME280;66361;52.034;20.656;2024-03-06T04:51:19;100290.63;;;5.01;96.00
77299;BME280;66361;52.034;20.656;2024-03-06T04:55:05;100298.38;;;5.04;96.00
77299;BME280;66361;52.034;20.656;2024-03-06T04:58:50;100287.00;;;5.08;96.24
77299;BME280;66361;52.034;20.656;2024-03-06T05:02:34;100304.34;;;5.12;96.02
77299;BME280;66361;52.034;20.656;2024-03-06T05:06:37;100309.59;;;5.12;95.79
77299;BME280;66361;52.034;20.656;2024-03-06T05:10:39;100308.66;;;5.16;95.96
77299;BME280;66361;52.034;20.656;2024-03-06T05:14:41;100311.28;;;5.16;96.21
77299;BME280;66361;52.034;20.656;2024-03-06T05:18:42;100314.69;;;5.21;96.28
77299;BME280;66361;52.034;20.656;2024-03-06T05:22:43;100317.19;;;5.27;95.86
77299;BME280;66361;52.034;20.656;2024-03-06T05:26:45;100321.50;;;5.29;95.75
77299;BME280;66361;52.034;20.656;2024-03-06T05:30:46;100330.16;;;5.31;95.75
77299;BME280;66361;52.034;20.656;2024-03-06T05:34:47;100333.63;;;5.34;96.41
77299;BME280;66361;52.034;20.656;2024-03-06T05:38:48;100332.72;;;5.36;95.71
77299;BME280;66361;52.034;20.656;2024-03-06T05:42:51;100332.66;;;5.39;95.66
77299;BME280;66361;52.034;20.656;2024-03-06T05:46:52;100347.47;;;5.39;95.94
77299;BME280;66361;52.034;20.656;2024-03-06T05:50:53;100340.47;;;5.41;96.01
77299;BME280;66361;52.034;20.656;2024-03-06T05:54:55;100346.56;;;5.41;95.60
77299;BME280;66361;52.034;20.656;2024-03-06T05:58:57;100347.44;;;5.43;95.41
77299;BME280;66361;52.034;20.656;2024-03-06T06:02:43;100341.34;;;5.43;95.49
77299;BME280;66361;52.034;20.656;2024-03-06T06:06:27;100345.72;;;5.39;95.28
77299;BME280;66361;52.034;20.656;2024-03-06T06:10:12;100352.69;;;5.40;94.79
77299;BME280;66361;52.034;20.656;2024-03-06T06:14:00;100359.81;;;5.32;94.17
77299;BME280;66361;52.034;20.656;2024-03-06T06:17:45;100357.28;;;5.26;94.64
77299;BME280;66361;52.034;20.656;2024-03-06T06:21:29;100362.59;;;5.23;94.14
77299;BME280;66361;52.034;20.656;2024-03-06T06:25:13;100373.97;;;5.17;93.89
77299;BME280;66361;52.034;20.656;2024-03-06T06:29:00;100379.31;;;5.10;93.33
77299;BME280;66361;52.034;20.656;2024-03-06T06:32:45;100378.50;;;5.08;93.36
77299;BME280;66361;52.034;20.656;2024-03-06T06:36:29;100392.47;;;5.05;93.09
77299;BME280;66361;52.034;20.656;2024-03-06T06:40:20;100399.53;;;5.00;92.90
77299;BME280;66361;52.034;20.656;2024-03-06T06:44:05;100399.56;;;4.96;92.99
77299;BME280;66361;52.034;20.656;2024-03-06T06:47:49;100406.59;;;4.94;92.54
77299;BME280;66361;52.034;20.656;2024-03-06T06:51:34;100400.50;;;4.91;92.44
77299;BME280;66361;52.034;20.656;2024-03-06T06:55:17;100398.78;;;4.92;91.63
77299;BME280;66361;52.034;20.656;2024-03-06T06:59:06;100420.53;;;4.94;92.08
77299;BME280;66361;52.034;20.656;2024-03-06T07:02:51;100414.44;;;4.94;92.28
77299;BME280;66361;52.034;20.656;2024-03-06T07:06:35;100419.69;;;4.90;92.09
77299;BME280;66361;52.034;20.656;2024-03-06T07:10:18;100420.53;;;4.94;92.01
77299;BME280;66361;52.034;20.656;2024-03-06T07:14:02;100429.19;;;4.96;92.15
77299;BME280;66361;52.034;20.656;2024-03-06T07:17:47;100423.94;;;4.98;92.08
77299;BME280;66361;52.034;20.656;2024-03-06T07:21:32;100429.16;;;5.01;91.98
77299;BME280;66361;52.034;20.656;2024-03-06T07:25:16;100427.34;;;5.04;91.90
77299;BME280;66361;52.034;20.656;2024-03-06T07:29:00;100433.41;;;5.08;91.67
77299;BME280;66361;52.034;20.656;2024-03-06T07:32:44;100437.66;;;5.15;91.43
77299;BME280;66361;52.034;20.656;2024-03-06T07:36:29;100439.28;;;5.22;91.51
77299;BME280;66361;52.034;20.656;2024-03-06T07:40:14;100434.94;;;5.22;90.98
77299;BME280;66361;52.034;20.656;2024-03-06T07:43:57;100439.09;;;5.34;91.01
77299;BME280;66361;52.034;20.656;2024-03-06T07:47:41;100435.63;;;5.32;90.31
77299;BME280;66361;52.034;20.656;2024-03-06T07:51:25;100439.09;;;5.36;90.20
77299;BME280;66361;52.034;20.656;2024-03-06T07:55:10;100437.34;;;5.36;90.46
77299;BME280;66361;52.034;20.656;2024-03-06T07:58:54;100441.63;;;5.39;90.00
77299;BME280;66361;52.034;20.656;2024-03-06T08:02:38;100440.81;;;5.38;89.61
77299;BME280;66361;52.034;20.656;2024-03-06T08:06:25;100442.44;;;5.45;88.75
77299;BME280;66361;52.034;20.656;2024-03-06T08:10:10;100452.81;;;5.51;88.50
77299;BME280;66361;52.034;20.656;2024-03-06T08:13:57;100453.56;;;5.58;88.43
77299;BME280;66361;52.034;20.656;2024-03-06T08:17:42;100455.41;;;5.53;88.11
77299;BME280;66361;52.034;20.656;2024-03-06T08:21:26;100459.91;;;5.43;87.75
77299;BME280;66361;52.034;20.656;2024-03-06T08:25:12;100466.88;;;5.44;88.07
77299;BME280;66361;52.034;20.656;2024-03-06T08:28:56;100466.88;;;5.43;87.63
77299;BME280;66361;52.034;20.656;2024-03-06T08:32:39;100459.88;;;5.45;87.67
77299;BME280;66361;52.034;20.656;2024-03-06T08:36:26;100471.88;;;5.59;87.17
77299;BME280;66361;52.034;20.656;2024-03-06T08:40:14;100475.28;;;5.63;87.19
77299;BME280;66361;52.034;20.656;2024-03-06T08:44:03;100476.16;;;5.63;86.45
77299;BME280;66361;52.034;20.656;2024-03-06T08:47:47;100481.41;;;5.62;86.76
77299;BME280;66361;52.034;20.656;2024-03-06T08:51:31;100483.00;;;5.70;86.12
77299;BME280;66361;52.034;20.656;2024-03-06T08:55:16;100488.25;;;5.69;85.69
77299;BME280;66361;52.034;20.656;2024-03-06T08:59:00;100487.56;;;5.59;85.40
77299;BME280;66361;52.034;20.656;2024-03-06T09:02:44;100490.94;;;5.67;84.61
77299;BME280;66361;52.034;20.656;2024-03-06T09:06:28;100495.06;;;5.81;84.57
77299;BME280;66361;52.034;20.656;2024-03-06T09:10:12;100496.72;;;5.88;84.58
77299;BME280;66361;52.034;20.656;2024-03-06T09:13:57;100497.53;;;5.90;83.43
77299;BME280;66361;52.034;20.656;2024-03-06T09:17:44;100497.44;;;5.96;83.27
77299;BME280;66361;52.034;20.656;2024-03-06T09:21:28;100501.00;;;5.90;83.02
77299;BME280;66361;52.034;20.656;2024-03-06T09:25:12;100493.91;;;5.97;82.64
77299;BME280;66361;52.034;20.656;2024-03-06T09:28:59;100505.22;;;6.00;82.76
77299;BME280;66361;52.034;20.656;2024-03-06T09:32:43;100501.06;;;5.89;83.10
77299;BME280;66361;52.034;20.656;2024-03-06T09:36:27;100498.38;;;5.90;83.28
77299;BME280;66361;52.034;20.656;2024-03-06T09:40:11;100505.44;;;5.88;83.33
77299;BME280;66361;52.034;20.656;2024-03-06T09:44:04;100508.91;;;5.89;83.18
77299;BME280;66361;52.034;20.656;2024-03-06T09:47:49;100510.72;;;5.82;82.28
77299;BME280;66361;52.034;20.656;2024-03-06T09:51:35;100511.47;;;5.92;82.70
77299;BME280;66361;52.034;20.656;2024-03-06T09:55:20;100512.34;;;5.91;83.06
77299;BME280;66361;52.034;20.656;2024-03-06T09:59:05;100514.97;;;5.91;82.66
77299;BME280;66361;52.034;20.656;2024-03-06T10:02:56;100516.78;;;5.87;84.29
77299;BME280;66361;52.034;20.656;2024-03-06T10:06:40;100522.00;;;5.89;83.76
77299;BME280;66361;52.034;20.656;2024-03-06T10:10:24;100519.53;;;5.78;83.42
77299;BME280;66361;52.034;20.656;2024-03-06T10:14:10;100522.03;;;5.84;84.46
77299;BME280;66361;52.034;20.656;2024-03-06T10:18:10;100524.88;;;5.72;83.41
77299;BME280;66361;52.034;20.656;2024-03-06T10:21:56;100529.25;;;5.68;83.46
77299;BME280;66361;52.034;20.656;2024-03-06T10:25:43;100529.97;;;5.80;82.86
77299;BME280;66361;52.034;20.656;2024-03-06T10:29:29;100531.44;;;5.97;83.01
77299;BME280;66361;52.034;20.656;2024-03-06T10:33:13;100534.03;;;5.99;83.27
77299;BME280;66361;52.034;20.656;2024-03-06T10:36:58;100541.19;;;5.89;83.43
77299;BME280;66361;52.034;20.656;2024-03-06T10:40:43;100547.59;;;5.68;82.05
77299;BME280;66361;52.034;20.656;2024-03-06T10:44:28;100548.41;;;5.72;81.92
77299;BME280;66361;52.034;20.656;2024-03-06T10:48:13;100542.31;;;5.73;82.87
77299;BME280;66361;52.034;20.656;2024-03-06T10:51:58;100551.91;;;5.71;82.40
77299;BME280;66361;52.034;20.656;2024-03-06T10:55:43;100558.06;;;5.68;82.42
77299;BME280;66361;52.034;20.656;2024-03-06T10:59:29;100559.97;;;5.57;82.19
77299;BME280;66361;52.034;20.656;2024-03-06T11:03:13;100563.56;;;5.50;81.74
77299;BME280;66361;52.034;20.656;2024-03-06T11:06:57;100554.63;;;5.66;81.33
77299;BME280;66361;52.034;20.656;2024-03-06T11:10:43;100561.38;;;5.80;81.19
77299;BME280;66361;52.034;20.656;2024-03-06T11:14:31;100564.03;;;5.77;81.22
77299;BME280;66361;52.034;20.656;2024-03-06T11:18:43;100565.09;;;5.66;81.35
77299;BME280;66361;52.034;20.656;2024-03-06T11:26:55;100572.94;;;5.66;80.99
77299;BME280;66361;52.034;20.656;2024-03-06T11:30:46;100569.44;;;5.66;80.13
77299;BME280;66361;52.034;20.656;2024-03-06T11:34:30;100566.94;;;5.57;80.07
77299;BME280;66361;52.034;20.656;2024-03-06T11:38:16;100580.09;;;5.52;80.00
77299;BME280;66361;52.034;20.656;2024-03-06T11:42:00;100577.50;;;5.51;79.82
77299;BME280;66361;52.034;20.656;2024-03-06T11:45:46;100575.91;;;5.39;79.75
77299;BME280;66361;52.034;20.656;2024-03-06T11:49:31;100580.22;;;5.43;80.16
77299;BME280;66361;52.034;20.656;2024-03-06T11:53:16;100583.72;;;5.42;79.38
77299;BME280;66361;52.034;20.656;2024-03-06T11:57:04;100582.06;;;5.37;79.56
77299;BME280;66361;52.034;20.656;2024-03-06T12:00:50;100576.56;;;5.56;79.61
77299;BME280;66361;52.034;20.656;2024-03-06T12:04:35;100583.41;;;5.65;78.72
77299;BME280;66361;52.034;20.656;2024-03-06T12:08:21;100588.78;;;5.54;78.49
77299;BME280;66361;52.034;20.656;2024-03-06T12:12:06;100584.41;;;5.55;78.68
77299;BME280;66361;52.034;20.656;2024-03-06T12:15:52;100582.75;;;5.49;78.28
77299;BME280;66361;52.034;20.656;2024-03-06T12:19:36;100584.56;;;5.44;79.20
77299;BME280;66361;52.034;20.656;2024-03-06T12:23:20;100582.25;;;5.20;78.36
77299;BME280;66361;52.034;20.656;2024-03-06T12:27:08;100583.91;;;5.27;78.24
77299;BME280;66361;52.034;20.656;2024-03-06T12:30:53;100587.28;;;5.35;79.05
77299;BME280;66361;52.034;20.656;2024-03-06T12:34:37;100586.16;;;5.56;78.20
77299;BME280;66361;52.034;20.656;2024-03-06T12:38:20;100587.97;;;5.51;78.00
77299;BME280;66361;52.034;20.656;2024-03-06T12:42:04;100587.84;;;5.60;77.99
77299;BME280;66361;52.034;20.656;2024-03-06T12:45:48;100587.88;;;5.57;77.40
77299;BME280;66361;52.034;20.656;2024-03-06T12:49:33;100592.28;;;5.53;77.33
77299;BME280;66361;52.034;20.656;2024-03-06T12:53:18;100599.28;;;5.53;76.96
77299;BME280;66361;52.034;20.656;2024-03-06T12:57:02;100598.34;;;5.57;76.83
77299;BME280;66361;52.034;20.656;2024-03-06T13:00:46;100602.78;;;5.50;76.95
77299;BME280;66361;52.034;20.656;2024-03-06T13:04:29;100600.97;;;5.55;77.10
77299;BME280;66361;52.034;20.656;2024-03-06T13:08:14;100600.09;;;5.55;76.16
77299;BME280;66361;52.034;20.656;2024-03-06T13:11:58;100596.63;;;5.54;76.82
77299;BME280;66361;52.034;20.656;2024-03-06T13:15:42;100588.69;;;5.60;75.84
77299;BME280;66361;52.034;20.656;2024-03-06T13:19:26;100600.09;;;5.56;76.14
77299;BME280;66361;52.034;20.656;2024-03-06T13:23:10;100602.50;;;5.72;75.73
77299;BME280;66361;52.034;20.656;2024-03-06T13:26:55;100605.13;;;5.72;75.42
77299;BME280;66361;52.034;20.656;2024-03-06T13:30:39;100599.78;;;5.79;75.62
77299;BME280;66361;52.034;20.656;2024-03-06T13:34:22;100605.09;;;5.73;75.89
77299;BME280;66361;52.034;20.656;2024-03-06T13:38:06;100600.59;;;5.83;75.13
77299;BME280;66361;52.034;20.656;2024-03-06T13:41:50;100602.97;;;5.98;74.52
77299;BME280;66361;52.034;20.656;2024-03-06T13:45:36;100601.09;;;6.07;75.19
77299;BME280;66361;52.034;20.656;2024-03-06T13:49:34;100601.81;;;6.19;73.85
77299;BME280;66361;52.034;20.656;2024-03-06T13:53:19;100598.78;;;6.41;73.86
77299;BME280;66361;52.034;20.656;2024-03-06T13:57:03;100598.06;;;6.33;72.09
77299;BME280;66361;52.034;20.656;2024-03-06T14:00:49;100603.97;;;6.46;71.92
77299;BME280;66361;52.034;20.656;2024-03-06T14:04:33;100597.09;;;6.40;71.51
77299;BME280;66361;52.034;20.656;2024-03-06T14:08:17;100597.97;;;6.39;71.30
77299;BME280;66361;52.034;20.656;2024-03-06T14:12:01;100604.25;;;6.28;71.82
77299;BME280;66361;52.034;20.656;2024-03-06T14:15:45;100610.44;;;6.25;72.73
77299;BME280;66361;52.034;20.656;2024-03-06T14:19:32;100609.81;;;6.08;71.76
77299;BME280;66361;52.034;20.656;2024-03-06T14:23:16;100604.72;;;5.97;73.00
77299;BME280;66361;52.034;20.656;2024-03-06T14:27:00;100611.88;;;5.88;72.75
77299;BME280;66361;52.034;20.656;2024-03-06T14:30:45;100611.16;;;5.77;72.79
77299;BME280;66361;52.034;20.656;2024-03-06T14:34:29;100606.97;;;5.63;71.98
77299;BME280;66361;52.034;20.656;2024-03-06T14:38:15;100617.56;;;5.54;71.95
77299;BME280;66361;52.034;20.656;2024-03-06T14:41:58;100623.81;;;5.43;72.20
77299;BME280;66361;52.034;20.656;2024-03-06T14:45:45;100627.41;;;5.36;72.39
77299;BME280;66361;52.034;20.656;2024-03-06T14:49:29;100625.75;;;5.25;71.85
77299;BME280;66361;52.034;20.656;2024-03-06T14:53:13;100631.88;;;5.24;71.84
77299;BME280;66361;52.034;20.656;2024-03-06T14:56:58;100637.09;;;5.24;71.80
77299;BME280;66361;52.034;20.656;2024-03-06T15:00:49;100651.03;;;5.25;70.88
77299;BME280;66361;52.034;20.656;2024-03-06T15:04:34;100637.06;;;5.30;70.63
77299;BME280;66361;52.034;20.656;2024-03-06T15:08:18;100645.00;;;5.21;69.72
77299;BME280;66361;52.034;20.656;2024-03-06T15:12:03;100645.88;;;5.20;70.05
77299;BME280;66361;52.034;20.656;2024-03-06T15:15:47;100652.00;;;5.18;70.18
77299;BME280;66361;52.034;20.656;2024-03-06T15:19:30;100648.56;;;5.16;69.50
77299;BME280;66361;52.034;20.656;2024-03-06T15:23:14;100665.19;;;5.09;69.66
77299;BME280;66361;52.034;20.656;2024-03-06T15:26:58;100663.47;;;5.05;69.56
77299;BME280;66361;52.034;20.656;2024-03-06T15:30:43;100669.63;;;5.01;70.01
77299;BME280;66361;52.034;20.656;2024-03-06T15:34:27;100666.22;;;4.94;69.40
77299;BME280;66361;52.034;20.656;2024-03-06T15:38:11;100666.22;;;4.94;70.06
77299;BME280;66361;52.034;20.656;2024-03-06T15:41:54;100669.72;;;4.91;70.06
77299;BME280;66361;52.034;20.656;2024-03-06T15:45:40;100674.94;;;4.88;69.84
77299;BME280;66361;52.034;20.656;2024-03-06T15:49:25;100673.19;;;4.90;69.39
77299;BME280;66361;52.034;20.656;2024-03-06T15:53:09;100675.88;;;4.84;68.11
77299;BME280;66361;52.034;20.656;2024-03-06T15:56:53;100688.13;;;4.76;67.81
77299;BME280;66361;52.034;20.656;2024-03-06T16:00:37;100679.44;;;4.73;68.19
77299;BME280;66361;52.034;20.656;2024-03-06T16:04:21;100680.41;;;4.64;67.03
77299;BME280;66361;52.034;20.656;2024-03-06T16:08:07;100685.59;;;4.66;65.09
77299;BME280;66361;52.034;20.656;2024-03-06T16:11:51;100691.72;;;4.63;65.76
77299;BME280;66361;52.034;20.656;2024-03-06T16:15:35;100694.34;;;4.63;66.25
77299;BME280;66361;52.034;20.656;2024-03-06T16:19:18;100700.50;;;4.53;67.36
77299;BME280;66361;52.034;20.656;2024-03-06T16:23:14;100696.19;;;4.50;67.89
77299;BME280;66361;52.034;20.656;2024-03-06T16:26:58;100701.44;;;4.49;68.44
77299;BME280;66361;52.034;20.656;2024-03-06T16:30:41;100705.78;;;4.45;69.31
77299;BME280;66361;52.034;20.656;2024-03-06T16:34:25;100711.06;;;4.42;69.87
77299;BME280;66361;52.034;20.656;2024-03-06T16:38:09;100711.06;;;4.36;70.68
77299;BME280;66361;52.034;20.656;2024-03-06T16:41:54;100722.47;;;4.26;70.62
77299;BME280;66361;52.034;20.656;2024-03-06T16:45:38;100717.28;;;4.19;70.74
77299;BME280;66361;52.034;20.656;2024-03-06T16:49:21;100728.69;;;4.05;70.92
77299;BME280;66361;52.034;20.656;2024-03-06T16:53:05;100732.19;;;3.94;69.78
77299;BME280;66361;52.034;20.656;2024-03-06T16:56:49;100730.56;;;3.65;70.17
77299;BME280;66361;52.034;20.656;2024-03-06T17:00:34;100728.00;;;3.58;69.01
77299;BME280;66361;52.034;20.656;2024-03-06T17:04:18;100737.63;;;3.41;67.95
77299;BME280;66361;52.034;20.656;2024-03-06T17:08:02;100742.00;;;3.25;67.95
77299;BME280;66361;52.034;20.656;2024-03-06T17:11:47;100747.22;;;3.25;67.42
77299;BME280;66361;52.034;20.656;2024-03-06T17:15:31;100746.34;;;3.06;67.96
77299;BME280;66361;52.034;20.656;2024-03-06T17:19:16;100750.72;;;3.01;68.74
77299;BME280;66361;52.034;20.656;2024-03-06T17:23:01;100746.34;;;3.06;68.50
77299;BME280;66361;52.034;20.656;2024-03-06T17:26:45;100748.94;;;3.05;68.83
77299;BME280;66361;52.034;20.656;2024-03-06T17:30:29;100752.44;;;3.08;68.34
77299;BME280;66361;52.034;20.656;2024-03-06T17:34:13;100761.13;;;3.09;68.64
77299;BME280;66361;52.034;20.656;2024-03-06T17:37:59;100757.63;;;3.13;68.37
77299;BME280;66361;52.034;20.656;2024-03-06T17:41:43;100751.56;;;3.12;68.98
77299;BME280;66361;52.034;20.656;2024-03-06T17:45:27;100763.72;;;3.13;68.48
77299;BME280;66361;52.034;20.656;2024-03-06T17:49:12;100764.59;;;3.02;68.98
77299;BME280;66361;52.034;20.656;2024-03-06T17:52:56;100764.63;;;3.03;69.66
77299;BME280;66361;52.034;20.656;2024-03-06T17:56:42;100768.94;;;3.15;68.62
77299;BME280;66361;52.034;20.656;2024-03-06T18:00:26;100772.41;;;3.15;69.58
77299;BME280;66361;52.034;20.656;2024-03-06T18:04:10;100781.09;;;3.19;69.60
77299;BME280;66361;52.034;20.656;2024-03-06T18:07:54;100780.22;;;3.17;69.61
77299;BME280;66361;52.034;20.656;2024-03-06T18:11:39;100777.63;;;3.23;69.58
77299;BME280;66361;52.034;20.656;2024-03-06T18:15:24;100784.56;;;3.21;69.86
77299;BME280;66361;52.034;20.656;2024-03-06T18:19:08;100793.25;;;3.24;69.67
77299;BME280;66361;52.034;20.656;2024-03-06T18:22:52;100794.13;;;3.23;70.45
77299;BME280;66361;52.034;20.656;2024-03-06T18:26:36;100794.97;;;3.27;69.54
77299;BME280;66361;52.034;20.656;2024-03-06T18:30:20;100786.31;;;3.25;69.72
77299;BME280;66361;52.034;20.656;2024-03-06T18:34:05;100799.34;;;3.16;70.51
77299;BME280;66361;52.034;20.656;2024-03-06T18:37:49;100794.13;;;3.14;70.24
77299;BME280;66361;52.034;20.656;2024-03-06T18:41:33;100800.22;;;3.10;70.95
77299;BME280;66361;52.034;20.656;2024-03-06T18:45:17;100808.03;;;3.07;70.57
77299;BME280;66361;52.034;20.656;2024-03-06T18:49:02;100804.53;;;2.99;71.14
77299;BME280;66361;52.034;20.656;2024-03-06T18:52:48;100810.59;;;2.83;70.96
77299;BME280;66361;52.034;20.656;2024-03-06T18:56:31;100807.13;;;2.72;72.12
77299;BME280;66361;52.034;20.656;2024-03-06T19:00:17;100802.78;;;2.66;72.32
77299;BME280;66361;52.034;20.656;2024-03-06T19:04:01;100810.56;;;2.51;72.99
77299;BME280;66361;52.034;20.656;2024-03-06T19:07:45;100817.44;;;2.32;72.74
77299;BME280;66361;52.034;20.656;2024-03-06T19:11:30;100820.00;;;2.20;74.25
77299;BME280;66361;52.034;20.656;2024-03-06T19:15:15;100818.22;;;2.07;74.47
77299;BME280;66361;52.034;20.656;2024-03-06T19:18:58;100823.41;;;2.05;75.24
77299;BME280;66361;52.034;20.656;2024-03-06T19:22:43;100825.09;;;1.93;74.36
77299;BME280;66361;52.034;20.656;2024-03-06T19:26:27;100834.41;;;1.54;75.40
77299;BME280;66361;52.034;20.656;2024-03-06T19:30:13;100828.16;;;1.28;77.09
77299;BME280;66361;52.034;20.656;2024-03-06T19:33:57;100831.38;;;1.01;76.98
77299;BME280;66361;52.034;20.656;2024-03-06T19:37:41;100827.00;;;0.91;78.32
77299;BME280;66361;52.034;20.656;2024-03-06T19:41:25;100835.38;;;0.66;78.94
77299;BME280;66361;52.034;20.656;2024-03-06T19:45:10;100828.25;;;0.45;79.65